createdAt,value
2023-12-14T00:01:17.836Z,98382.41
2023-12-14T00:03:45.714Z,98378.63
2023-12-14T00:06:13.322Z,98379.03
2023-12-14T00:08:40.926Z,98391.97
2023-12-14T00:11:09.393Z,98387.09
2023-12-14T00:13:36.931Z,98383.72
2023-12-14T00:16:04.677Z,98382.69
2023-12-14T00:18:32.398Z,98378.97
2023-12-14T00:20:59.838Z,98398.00
2023-12-14T00:23:27.647Z,98404.28
2023-12-14T00:25:55.400Z,98414.41
2023-12-14T00:28:25.285Z,98418.31
2023-12-14T00:30:54.246Z,98420.56
2023-12-14T00:33:21.973Z,98423.53
2023-12-14T00:35:49.398Z,98429.81
2023-12-14T00:38:16.865Z,98433.44
2023-12-14T00:40:44.597Z,98443.69
2023-12-14T00:43:12.065Z,98452.06
2023-12-14T00:45:39.504Z,98463.84
2023-12-14T00:48:07.231Z,98479.13
2023-12-14T00:50:34.698Z,98485.00
2023-12-14T00:53:02.135Z,98483.28
2023-12-14T00:55:29.836Z,98498.16
2023-12-14T00:57:57.271Z,98518.03
2023-12-14T01:00:24.665Z,98512.72
2023-12-14T01:02:52.285Z,98522.66
2023-12-14T01:05:19.785Z,98517.63
2023-12-14T01:07:47.287Z,98515.34
2023-12-14T01:10:15.205Z,98509.03
2023-12-14T01:12:42.624Z,98510.53
2023-12-14T01:15:10.463Z,98498.16
2023-12-14T01:17:38.916Z,98490.38
2023-12-14T01:20:08.214Z,98477.94
2023-12-14T01:22:36.014Z,98473.38
2023-12-14T01:25:04.236Z,98463.09
2023-12-14T01:27:31.744Z,98460.22
2023-12-14T01:29:59.250Z,98465.28
2023-12-14T01:32:27.100Z,98479.34
2023-12-14T01:34:54.629Z,98472.75
2023-12-14T01:37:22.041Z,98470.72
2023-12-14T01:39:49.684Z,98458.62
2023-12-14T01:42:17.095Z,98461.59
2023-12-14T01:44:44.501Z,98455.06
2023-12-14T01:47:12.340Z,98446.75
2023-12-14T01:49:40.259Z,98448.34
2023-12-14T01:52:07.867Z,98447.38
2023-12-14T01:54:35.529Z,98450.34
2023-12-14T01:57:02.923Z,98456.03
2023-12-14T01:59:30.315Z,98465.81
2023-12-14T02:01:58.323Z,98481.25
2023-12-14T02:04:29.013Z,98486.81
2023-12-14T02:06:56.482Z,98489.63
2023-12-14T02:09:23.958Z,98483.50
2023-12-14T02:11:51.683Z,98485.50
2023-12-14T02:14:19.171Z,98484.78
2023-12-14T02:16:46.557Z,98481.63
2023-12-14T02:19:14.250Z,98482.25
2023-12-14T02:21:41.661Z,98484.19
2023-12-14T02:24:09.026Z,98473.06
2023-12-14T02:26:36.693Z,98484.75
2023-12-14T02:29:04.143Z,98480.59
2023-12-14T02:31:31.828Z,98477.34
2023-12-14T02:33:59.562Z,98467.50
2023-12-14T02:36:27.067Z,98476.94
2023-12-14T02:38:54.544Z,98486.97
2023-12-14T02:41:22.210Z,98491.16
2023-12-14T02:43:49.605Z,98483.87
2023-12-14T02:46:17.104Z,98479.34
2023-12-14T02:48:44.951Z,98484.28
2023-12-14T02:51:18.478Z,98481.91
2023-12-14T02:53:46.128Z,98469.34
2023-12-14T02:56:13.826Z,98460.44
2023-12-14T02:58:41.418Z,98460.56
2023-12-14T03:01:09.274Z,98471.09
2023-12-14T03:03:39.883Z,98475.19
2023-12-14T03:06:07.466Z,98470.44
2023-12-14T03:08:35.170Z,98480.12
2023-12-14T03:11:02.625Z,98481.16
2023-12-14T03:13:30.052Z,98485.63
2023-12-14T03:15:57.794Z,98484.50
2023-12-14T03:18:25.321Z,98490.78
2023-12-14T03:20:52.747Z,98491.47
2023-12-14T03:23:20.424Z,98508.81
2023-12-14T03:25:47.900Z,98509.59
2023-12-14T03:28:15.326Z,98519.88
2023-12-14T03:30:43.078Z,98530.53
2023-12-14T03:33:10.661Z,98543.88
2023-12-14T03:35:38.208Z,98545.28
2023-12-14T03:38:06.116Z,98552.13
2023-12-14T03:40:33.690Z,98564.34
2023-12-14T03:43:01.137Z,98564.12
2023-12-14T03:45:28.798Z,98565.00
2023-12-14T03:47:56.207Z,98568.66
2023-12-14T03:50:23.887Z,98574.84
2023-12-14T03:52:51.629Z,98575.22
2023-12-14T03:55:19.097Z,98567.63
2023-12-14T03:57:46.551Z,98572.91
2023-12-14T04:00:14.618Z,98568.47
2023-12-14T04:02:42.306Z,98570.94
2023-12-14T04:05:10.418Z,98567.66
2023-12-14T04:07:40.724Z,98570.69
2023-12-14T04:10:09.930Z,98581.09
2023-12-14T04:12:37.802Z,98577.13
2023-12-14T04:15:05.827Z,98583.94
2023-12-14T04:17:33.778Z,98594.72
2023-12-14T04:20:01.450Z,98600.28
2023-12-14T04:22:28.960Z,98600.38
2023-12-14T04:24:56.673Z,98601.84
2023-12-14T04:27:28.197Z,98601.25
2023-12-14T04:29:55.690Z,98599.41
2023-12-14T04:32:23.350Z,98596.69
2023-12-14T04:34:50.787Z,98596.28
2023-12-14T04:37:18.209Z,98589.16
2023-12-14T04:39:46.180Z,98588.81
2023-12-14T04:42:13.617Z,98595.53
2023-12-14T04:44:41.040Z,98601.81
2023-12-14T04:47:09.729Z,98604.13
2023-12-14T04:49:37.376Z,98605.47
2023-12-14T04:52:05.558Z,98612.22
2023-12-14T04:54:33.272Z,98620.13
2023-12-14T04:57:00.656Z,98626.38
2023-12-14T04:59:28.082Z,98621.56
2023-12-14T05:01:55.931Z,98627.31
2023-12-14T05:04:23.336Z,98631.13
2023-12-14T05:06:50.759Z,98632.00
2023-12-14T05:09:18.472Z,98623.19
2023-12-14T05:11:45.906Z,98630.91
2023-12-14T05:14:13.380Z,98625.91
2023-12-14T05:16:41.179Z,98641.00
2023-12-14T05:19:08.683Z,98634.81
2023-12-14T05:21:36.157Z,98632.78
2023-12-14T05:24:04.163Z,98632.16
2023-12-14T05:26:31.633Z,98637.53
2023-12-14T05:28:59.202Z,98651.97
2023-12-14T05:31:27.072Z,98647.81
2023-12-14T05:33:54.633Z,98665.59
2023-12-14T05:36:22.238Z,98671.66
2023-12-14T05:38:49.964Z,98669.63
2023-12-14T05:41:17.441Z,98666.78
2023-12-14T05:43:45.036Z,98667.72
2023-12-14T05:46:21.975Z,98680.28
2023-12-14T05:48:50.040Z,98688.13
2023-12-14T05:51:28.360Z,98686.91
2023-12-14T05:53:56.051Z,98679.69
2023-12-14T05:56:23.966Z,98687.91
2023-12-14T05:58:51.420Z,98687.28
2023-12-14T06:01:19.549Z,98698.66
2023-12-14T06:03:47.796Z,98695.31
2023-12-14T06:06:15.788Z,98702.22
2023-12-14T06:08:43.350Z,98701.81
2023-12-14T06:11:11.063Z,98698.03
2023-12-14T06:13:39.019Z,98697.25
2023-12-14T06:16:07.988Z,98699.94
2023-12-14T06:18:35.752Z,98693.19
2023-12-14T06:21:03.343Z,98700.22
2023-12-14T06:23:30.752Z,98712.59
2023-12-14T06:25:59.640Z,98714.97
2023-12-14T06:28:27.044Z,98717.19
2023-12-14T06:30:54.471Z,98723.44
2023-12-14T06:33:22.717Z,98722.69
2023-12-14T06:35:50.205Z,98728.53
2023-12-14T06:38:17.779Z,98726.22
2023-12-14T06:40:45.609Z,98733.16
2023-12-14T06:43:13.039Z,98743.87
2023-12-14T06:45:40.480Z,98744.00
2023-12-14T06:48:08.324Z,98745.31
2023-12-14T06:50:35.847Z,98758.50
2023-12-14T06:53:03.587Z,98754.22
2023-12-14T06:55:31.403Z,98756.50
2023-12-14T06:57:58.855Z,98763.09
2023-12-14T07:00:26.267Z,98760.72
2023-12-14T07:02:54.030Z,98759.94
2023-12-14T07:05:21.951Z,98763.25
2023-12-14T07:07:49.758Z,98763.94
2023-12-14T07:10:17.950Z,98780.78
2023-12-14T07:12:45.487Z,98792.31
2023-12-14T07:15:12.863Z,98795.78
2023-12-14T07:17:41.074Z,98782.50
2023-12-14T07:20:09.076Z,98794.28
2023-12-14T07:22:36.738Z,98802.53
2023-12-14T07:25:05.198Z,98799.50
2023-12-14T07:27:32.646Z,98801.62
2023-12-14T07:30:00.053Z,98799.94
2023-12-14T07:32:28.144Z,98814.44
2023-12-14T07:34:56.248Z,98811.81
2023-12-14T07:37:23.712Z,98815.16
2023-12-14T07:39:51.442Z,98818.69
2023-12-14T07:42:21.234Z,98824.84
2023-12-14T07:44:48.626Z,98824.03
2023-12-14T07:47:16.440Z,98830.75
2023-12-14T07:49:44.027Z,98822.78
2023-12-14T07:52:11.477Z,98832.53
2023-12-14T07:54:39.199Z,98828.34
2023-12-14T07:57:06.677Z,98829.34
2023-12-14T07:59:34.194Z,98831.06
2023-12-14T08:02:01.994Z,98835.72
2023-12-14T08:04:29.812Z,98831.59
2023-12-14T08:06:57.732Z,98842.37
2023-12-14T08:09:25.285Z,98844.94
2023-12-14T08:11:53.611Z,98849.38
2023-12-14T08:14:21.193Z,98858.72
2023-12-14T08:16:48.707Z,98864.69
2023-12-14T08:19:16.499Z,98872.16
2023-12-14T08:21:43.931Z,98871.97
2023-12-14T08:24:11.352Z,98876.31
2023-12-14T08:26:39.042Z,98875.28
2023-12-14T08:29:06.461Z,98885.50
2023-12-14T08:31:33.931Z,98890.53
2023-12-14T08:34:02.144Z,98894.25
2023-12-14T08:36:29.627Z,98895.56
2023-12-14T08:38:57.003Z,98898.06
2023-12-14T08:41:24.795Z,98903.22
2023-12-14T08:43:52.364Z,98892.41
2023-12-14T08:46:19.863Z,98908.16
2023-12-14T08:48:48.042Z,98901.69
2023-12-14T08:51:15.478Z,98904.06
2023-12-14T08:53:46.428Z,98906.53
2023-12-14T08:56:14.142Z,98910.81
2023-12-14T08:58:41.650Z,98916.22
2023-12-14T09:01:09.150Z,98922.41
2023-12-14T09:03:36.958Z,98923.00
2023-12-14T09:06:06.582Z,98925.34
2023-12-14T09:08:34.221Z,98930.66
2023-12-14T09:11:01.976Z,98930.00
2023-12-14T09:13:29.436Z,98936.78
2023-12-14T09:15:56.933Z,98933.84
2023-12-14T09:18:25.294Z,98942.84
2023-12-14T09:20:52.757Z,98931.72
2023-12-14T09:23:20.492Z,98937.06
2023-12-14T09:25:52.021Z,98940.59
2023-12-14T09:28:19.511Z,98939.81
2023-12-14T09:30:46.991Z,98933.84
2023-12-14T09:33:17.500Z,98946.16
2023-12-14T09:35:45.132Z,98946.69
2023-12-14T09:38:15.062Z,98949.75
2023-12-14T09:40:45.251Z,98955.31
2023-12-14T09:43:15.090Z,98949.22
2023-12-14T09:45:46.472Z,98956.06
2023-12-14T09:48:14.244Z,98959.28
2023-12-14T09:50:42.204Z,98961.53
2023-12-14T09:53:09.898Z,98959.19
2023-12-14T09:55:37.382Z,98959.34
2023-12-14T09:58:04.854Z,98960.94
2023-12-14T10:00:39.281Z,98960.66
2023-12-14T10:03:23.864Z,98975.41
2023-12-14T10:05:51.630Z,98974.69
2023-12-14T10:08:19.737Z,98964.78
2023-12-14T10:10:50.322Z,98973.41
2023-12-14T10:13:17.937Z,98980.44
2023-12-14T10:15:46.465Z,98986.78
2023-12-14T10:18:22.417Z,98984.69
2023-12-14T10:20:50.168Z,98986.03
2023-12-14T10:23:17.727Z,98989.94
2023-12-14T10:25:45.280Z,98989.16
2023-12-14T10:28:16.405Z,98988.00
2023-12-14T10:30:43.919Z,98997.13
2023-12-14T10:33:11.530Z,99002.87
2023-12-14T10:35:39.379Z,99004.91
2023-12-14T10:38:06.900Z,99016.59
2023-12-14T10:40:34.365Z,99012.09
2023-12-14T10:43:02.342Z,99012.22
2023-12-14T10:45:31.254Z,99007.84
2023-12-14T10:48:00.081Z,99007.84
2023-12-14T10:50:32.537Z,99016.50
2023-12-14T10:53:00.346Z,99022.00
2023-12-14T10:55:44.416Z,99018.87
2023-12-14T10:58:12.070Z,99027.09
2023-12-14T11:00:39.968Z,99030.34
2023-12-14T11:03:07.454Z,99036.47
2023-12-14T11:05:35.490Z,99036.44
2023-12-14T11:08:11.438Z,99032.87
2023-12-14T11:10:53.965Z,99031.06
2023-12-14T11:13:21.728Z,99044.56
2023-12-14T11:15:51.363Z,99037.75
2023-12-14T11:18:19.110Z,99037.25
2023-12-14T11:20:47.107Z,99038.63
2023-12-14T11:23:19.177Z,99044.22
2023-12-14T11:25:55.417Z,99039.16
2023-12-14T11:28:26.730Z,99054.88
2023-12-14T11:30:56.474Z,99053.16
2023-12-14T11:33:24.904Z,99037.84
2023-12-14T11:35:53.818Z,99046.03
2023-12-14T11:38:22.887Z,99051.41
2023-12-14T11:40:51.608Z,99053.66
2023-12-14T11:43:22.020Z,99054.38
2023-12-14T11:45:50.590Z,99049.09
2023-12-14T11:48:18.563Z,99040.87
2023-12-14T11:50:46.561Z,99052.25
2023-12-14T11:53:15.033Z,99041.13
2023-12-14T11:55:43.077Z,99054.41
2023-12-14T11:58:12.762Z,99062.09
2023-12-14T12:00:41.257Z,99057.25
2023-12-14T12:03:09.917Z,99054.47
2023-12-14T12:05:48.034Z,99062.69
2023-12-14T12:08:16.555Z,99059.97
2023-12-14T12:10:44.669Z,99065.84
2023-12-14T12:13:17.023Z,99069.09
2023-12-14T12:15:44.901Z,99076.19
2023-12-14T12:18:14.165Z,99086.47
2023-12-14T12:20:41.789Z,99083.69
2023-12-14T12:23:11.173Z,99087.16
2023-12-14T12:25:38.665Z,99091.94
2023-12-14T12:28:06.236Z,99098.88
2023-12-14T12:30:35.551Z,99094.03
2023-12-14T12:33:04.698Z,99103.63
2023-12-14T12:35:34.167Z,99109.47
2023-12-14T12:38:02.678Z,99111.91
2023-12-14T12:40:32.248Z,99112.72
2023-12-14T12:42:59.812Z,99108.13
2023-12-14T12:45:29.502Z,99112.56
2023-12-14T12:47:57.378Z,99106.84
2023-12-14T12:50:25.461Z,99115.13
2023-12-14T12:52:53.349Z,99127.41
2023-12-14T12:55:20.808Z,99126.72
2023-12-14T12:57:49.375Z,99128.59
2023-12-14T13:00:17.629Z,99137.63
2023-12-14T13:02:48.217Z,99131.25
2023-12-14T13:05:18.131Z,99144.50
2023-12-14T13:07:47.122Z,99148.41
2023-12-14T13:10:25.391Z,99144.09
2023-12-14T13:13:00.921Z,99153.28
2023-12-14T13:15:30.405Z,99159.41
2023-12-14T13:17:58.618Z,99161.47
2023-12-14T13:20:26.487Z,99163.37
2023-12-14T13:22:54.534Z,99158.03
2023-12-14T13:25:24.381Z,99173.22
2023-12-14T13:27:52.019Z,99175.78
2023-12-14T13:30:20.420Z,99165.19
2023-12-14T13:32:47.982Z,99171.88
2023-12-14T13:35:15.809Z,99179.31
2023-12-14T13:37:43.320Z,99173.59
2023-12-14T13:40:13.839Z,99184.22
2023-12-14T13:42:50.931Z,99182.62
2023-12-14T13:45:31.530Z,99187.19
2023-12-14T13:48:00.251Z,99189.72
2023-12-14T13:50:29.078Z,99191.72
2023-12-14T13:52:57.178Z,99201.19
2023-12-14T13:55:25.025Z,99201.84
2023-12-14T13:57:52.571Z,99206.13
2023-12-14T14:00:20.477Z,99234.09
2023-12-14T14:02:48.163Z,99223.97
2023-12-14T14:05:15.828Z,99237.81
2023-12-14T14:07:43.360Z,99236.66
2023-12-14T14:10:11.276Z,99244.44
2023-12-14T14:12:39.161Z,99234.72
2023-12-14T14:15:07.720Z,99244.50
2023-12-14T14:17:35.731Z,99263.06
2023-12-14T14:20:03.747Z,99254.19
2023-12-14T14:22:31.198Z,99259.97
2023-12-14T14:24:58.916Z,99251.66
2023-12-14T14:27:26.290Z,99257.25
2023-12-14T14:29:56.760Z,99257.28
2023-12-14T14:32:24.616Z,99263.88
2023-12-14T14:34:52.340Z,99278.94
2023-12-14T14:37:19.836Z,99292.53
2023-12-14T14:39:47.489Z,99287.06
2023-12-14T14:42:14.948Z,99288.78
2023-12-14T14:44:42.405Z,99294.34
2023-12-14T14:47:10.459Z,99287.00
2023-12-14T14:49:37.840Z,99293.03
2023-12-14T14:52:05.453Z,99300.78
2023-12-14T14:54:33.105Z,99305.94
2023-12-14T14:57:00.513Z,99310.72
2023-12-14T14:59:28.080Z,99316.03
2023-12-14T15:01:56.936Z,99322.63
2023-12-14T15:04:24.496Z,99323.59
2023-12-14T15:06:51.922Z,99338.31
2023-12-14T15:09:19.626Z,99333.19
2023-12-14T15:11:47.003Z,99338.75
2023-12-14T15:14:14.415Z,99343.78
2023-12-14T15:16:42.177Z,99356.88
2023-12-14T15:19:09.951Z,99349.72
2023-12-14T15:21:37.381Z,99357.84
2023-12-14T15:24:05.262Z,99372.56
2023-12-14T15:26:33.784Z,99364.31
2023-12-14T15:29:01.217Z,99379.22
2023-12-14T15:31:28.877Z,99374.66
2023-12-14T15:33:56.357Z,99376.34
2023-12-14T15:36:23.932Z,99384.00
2023-12-14T15:38:51.645Z,99393.19
2023-12-14T15:41:19.253Z,99401.91
2023-12-14T15:43:46.753Z,99411.25
2023-12-14T15:46:14.861Z,99412.25
2023-12-14T15:48:43.323Z,99410.38
2023-12-14T15:51:10.759Z,99405.97
2023-12-14T15:53:38.505Z,99418.69
2023-12-14T15:56:06.636Z,99421.41
2023-12-14T15:58:34.101Z,99419.72
2023-12-14T16:01:01.827Z,99421.28
2023-12-14T16:03:29.620Z,99427.41
2023-12-14T16:05:57.250Z,99418.84
2023-12-14T16:08:24.771Z,99431.81
2023-12-14T16:10:54.612Z,99428.84
2023-12-14T16:13:22.143Z,99444.37
2023-12-14T16:15:49.587Z,99426.50
2023-12-14T16:18:17.307Z,99449.12
2023-12-14T16:20:44.779Z,99440.66
2023-12-14T16:23:12.261Z,99444.91
2023-12-14T16:25:39.946Z,99451.41
2023-12-14T16:28:07.331Z,99459.13
2023-12-14T16:30:34.790Z,99457.09
2023-12-14T16:33:02.602Z,99469.53
2023-12-14T16:35:31.418Z,99465.06
2023-12-14T16:37:58.988Z,99465.09
2023-12-14T16:40:26.675Z,99475.50
2023-12-14T16:42:54.191Z,99479.75
2023-12-14T16:45:21.733Z,99487.00
2023-12-14T16:47:49.395Z,99487.12
2023-12-14T16:50:16.971Z,99496.84
2023-12-14T16:52:44.460Z,99502.56
2023-12-14T16:55:12.213Z,99503.09
2023-12-14T16:57:39.615Z,99510.56
2023-12-14T17:00:07.610Z,99514.59
2023-12-14T17:02:35.617Z,99517.47
2023-12-14T17:05:04.707Z,99509.16
2023-12-14T17:07:32.261Z,99525.41
2023-12-14T17:09:59.954Z,99530.38
2023-12-14T17:12:27.333Z,99537.06
2023-12-14T17:14:55.008Z,99543.03
2023-12-14T17:17:23.042Z,99535.97
2023-12-14T17:19:50.588Z,99551.47
2023-12-14T17:22:18.045Z,99551.22
2023-12-14T17:24:45.737Z,99562.69
2023-12-14T17:27:13.210Z,99573.50
2023-12-14T17:29:40.593Z,99569.31
2023-12-14T17:32:08.442Z,99581.37
2023-12-14T17:34:36.146Z,99584.00
2023-12-14T17:37:03.772Z,99589.84
2023-12-14T17:39:31.648Z,99592.84
2023-12-14T17:41:59.119Z,99600.25
2023-12-14T17:44:26.671Z,99605.53
2023-12-14T17:46:54.388Z,99606.06
2023-12-14T17:49:22.127Z,99616.75
2023-12-14T17:51:49.609Z,99616.59
2023-12-14T17:54:18.257Z,99626.41
2023-12-14T17:56:46.340Z,99626.66
2023-12-14T17:59:13.797Z,99641.00
2023-12-14T18:01:46.442Z,99640.53
2023-12-14T18:04:14.674Z,99642.59
2023-12-14T18:06:45.269Z,99649.53
2023-12-14T18:09:12.683Z,99653.66
2023-12-14T18:11:40.545Z,99656.69
2023-12-14T18:14:08.250Z,99661.53
2023-12-14T18:16:39.807Z,99677.34
2023-12-14T18:19:08.017Z,99674.94
2023-12-14T18:21:35.816Z,99685.44
2023-12-14T18:24:04.791Z,99687.78
2023-12-14T18:26:32.572Z,99689.97
2023-12-14T18:29:00.064Z,99703.41
2023-12-14T18:31:27.553Z,99699.38
2023-12-14T18:33:55.416Z,99700.62
2023-12-14T18:36:24.414Z,99712.03
2023-12-14T18:38:51.880Z,99713.75
2023-12-14T18:41:19.604Z,99713.91
2023-12-14T18:43:47.183Z,99707.75
2023-12-14T18:46:14.662Z,99707.41
2023-12-14T18:48:43.583Z,99716.09
2023-12-14T18:51:11.645Z,99713.47
2023-12-14T18:53:39.087Z,99718.34
2023-12-14T18:56:07.227Z,99722.84
2023-12-14T18:58:34.669Z,99725.53
2023-12-14T19:01:04.027Z,99741.22
2023-12-14T19:03:31.836Z,99742.59
2023-12-14T19:05:59.532Z,99748.63
2023-12-14T19:08:27.058Z,99750.75
2023-12-14T19:10:54.766Z,99752.91
2023-12-14T19:13:22.603Z,99760.06
2023-12-14T19:15:50.193Z,99771.87
2023-12-14T19:18:17.999Z,99765.13
2023-12-14T19:20:45.467Z,99771.44
2023-12-14T19:23:12.893Z,99779.66
2023-12-14T19:25:40.671Z,99776.66
2023-12-14T19:28:08.068Z,99783.06
2023-12-14T19:30:35.618Z,99784.84
2023-12-14T19:33:03.439Z,99784.50
2023-12-14T19:35:31.058Z,99784.53
2023-12-14T19:37:58.552Z,99780.69
2023-12-14T19:40:26.392Z,99793.13
2023-12-14T19:42:53.798Z,99791.72
2023-12-14T19:45:21.219Z,99802.28
2023-12-14T19:47:48.916Z,99804.25
2023-12-14T19:50:16.538Z,99801.22
2023-12-14T19:52:44.061Z,99806.44
2023-12-14T19:55:13.253Z,99805.34
2023-12-14T19:57:41.022Z,99816.69
2023-12-14T20:00:12.327Z,99814.75
2023-12-14T20:02:40.128Z,99816.25
2023-12-14T20:05:08.102Z,99832.91
2023-12-14T20:07:35.862Z,99829.31
2023-12-14T20:10:04.766Z,99836.53
2023-12-14T20:12:32.777Z,99834.97
2023-12-14T20:15:00.369Z,99832.50
2023-12-14T20:17:28.241Z,99855.25
2023-12-14T20:19:55.767Z,99848.78
2023-12-14T20:22:23.354Z,99849.44
2023-12-14T20:24:51.120Z,99853.03
2023-12-14T20:27:18.549Z,99856.09
2023-12-14T20:29:46.224Z,99860.53
2023-12-14T20:32:13.988Z,99861.63
2023-12-14T20:34:41.404Z,99859.72
2023-12-14T20:37:08.893Z,99863.87
2023-12-14T20:39:36.620Z,99859.84
2023-12-14T20:42:04.117Z,99868.88
2023-12-14T20:44:31.568Z,99861.28
2023-12-14T20:46:59.298Z,99871.09
2023-12-14T20:49:26.884Z,99883.16
2023-12-14T20:51:54.389Z,99879.37
2023-12-14T20:54:22.080Z,99889.81
2023-12-14T20:56:49.472Z,99887.94
2023-12-14T20:59:16.926Z,99886.66
2023-12-14T21:01:44.612Z,99889.00
2023-12-14T21:04:12.049Z,99897.75
2023-12-14T21:06:39.471Z,99892.47
2023-12-14T21:09:07.201Z,99893.87
2023-12-14T21:11:34.624Z,99900.41
2023-12-14T21:14:01.995Z,99900.28
2023-12-14T21:16:29.720Z,99909.37
2023-12-14T21:18:57.533Z,99902.97
2023-12-14T21:21:25.016Z,99902.87
2023-12-14T21:23:52.763Z,99913.59
2023-12-14T21:26:21.923Z,99900.25
2023-12-14T21:28:49.352Z,99900.66
2023-12-14T21:31:17.087Z,99909.56
2023-12-14T21:33:44.585Z,99917.72
2023-12-14T21:36:12.186Z,99915.78
2023-12-14T21:38:40.621Z,99919.84
2023-12-14T21:41:08.072Z,99924.00
2023-12-14T21:43:35.569Z,99924.00
2023-12-14T21:46:03.430Z,99927.34
2023-12-14T21:48:30.921Z,99925.81
2023-12-14T21:50:58.448Z,99947.75
2023-12-14T21:53:26.375Z,99942.44
2023-12-14T21:55:53.890Z,99944.88
2023-12-14T21:58:21.681Z,99951.38
2023-12-14T22:00:49.389Z,99946.66
2023-12-14T22:03:17.846Z,99952.91
2023-12-14T22:05:45.410Z,99946.41
2023-12-14T22:08:12.906Z,99950.13
2023-12-14T22:10:46.377Z,99946.03
2023-12-14T22:13:13.793Z,99945.81
2023-12-14T22:15:41.483Z,99953.31
2023-12-14T22:18:10.058Z,99948.69
2023-12-14T22:20:37.710Z,99962.22
2023-12-14T22:23:05.516Z,99958.34
2023-12-14T22:25:32.965Z,99960.41
2023-12-14T22:28:00.346Z,99977.50
2023-12-14T22:30:28.024Z,99979.56
2023-12-14T22:32:55.487Z,99978.78
2023-12-14T22:35:22.959Z,99981.03
2023-12-14T22:37:50.692Z,99986.69
2023-12-14T22:40:18.198Z,99992.53
2023-12-14T22:42:45.698Z,99992.75
2023-12-14T22:45:13.611Z,99993.06
2023-12-14T22:47:41.427Z,99996.09
2023-12-14T22:50:10.410Z,100005.47
2023-12-14T22:52:38.169Z,100004.06
2023-12-14T22:55:05.730Z,100007.09
2023-12-14T22:57:33.123Z,100009.22
2023-12-14T23:00:00.925Z,100017.44
2023-12-14T23:02:28.747Z,100021.06
2023-12-14T23:04:56.273Z,100016.75
2023-12-14T23:07:24.032Z,100021.34
2023-12-14T23:09:51.411Z,100022.38
2023-12-14T23:12:20.706Z,100028.00
2023-12-14T23:14:49.106Z,100020.75
2023-12-14T23:17:16.588Z,100027.22
2023-12-14T23:19:44.082Z,100026.22
2023-12-14T23:22:11.715Z,100021.66
2023-12-14T23:24:39.174Z,100021.50
2023-12-14T23:27:06.653Z,100029.56
2023-12-14T23:29:34.301Z,100031.19
2023-12-14T23:32:01.733Z,100035.84
2023-12-14T23:34:29.198Z,100030.63
2023-12-14T23:36:56.877Z,100031.41
2023-12-14T23:39:24.261Z,100028.22
2023-12-14T23:41:51.693Z,100035.50
2023-12-14T23:44:19.426Z,100042.50
2023-12-14T23:46:46.901Z,100042.34
2023-12-14T23:49:14.374Z,100048.19
2023-12-14T23:51:42.125Z,100046.12
2023-12-14T23:54:09.529Z,100051.19
2023-12-14T23:56:36.962Z,100049.53
2023-12-14T23:59:04.690Z,100059.19
